createdAt,value
2022-09-02T00:00:14.009Z,99428.66
2022-09-02T00:02:43.264Z,99430.59
2022-09-02T00:05:12.647Z,99425.44
2022-09-02T00:07:41.412Z,99417.50
2022-09-02T00:10:11.891Z,99415.06
2022-09-02T00:12:40.660Z,99414.22
2022-09-02T00:15:11.003Z,99423.00
2022-09-02T00:17:59.072Z,99413.75
2022-09-02T00:20:28.370Z,99417.28
2022-09-02T00:22:57.729Z,99419.88
2022-09-02T00:25:28.156Z,99422.47
2022-09-02T00:27:56.850Z,99418.94
2022-09-02T00:30:25.759Z,99419.09
2022-09-02T00:32:55.356Z,99406.94
2022-09-02T00:35:24.084Z,99422.47
2022-09-02T00:37:53.027Z,99413.06
2022-09-02T00:40:23.406Z,99408.84
2022-09-02T00:42:54.044Z,99415.00
2022-09-02T00:45:23.968Z,99403.97
2022-09-02T00:47:52.900Z,99411.75
2022-09-02T00:50:30.236Z,99403.97
2022-09-02T00:53:04.869Z,99413.53
2022-09-02T00:55:37.912Z,99400.75
2022-09-02T00:58:15.622Z,99405.94
2022-09-02T01:00:47.288Z,99399.13
2022-09-02T01:03:19.529Z,99406.88
2022-09-02T01:05:51.705Z,99402.66
2022-09-02T01:08:26.983Z,99402.66
2022-09-02T01:10:57.280Z,99406.22
2022-09-02T01:13:29.830Z,99395.84
2022-09-02T01:16:05.816Z,99394.25
2022-09-02T01:18:36.697Z,99397.00
2022-09-02T01:21:06.279Z,99393.56
2022-09-02T01:23:39.151Z,99397.28
2022-09-02T01:26:08.376Z,99388.72
2022-09-02T01:28:37.635Z,99392.94
2022-09-02T01:31:10.434Z,99392.94
2022-09-02T01:33:55.150Z,99391.31
2022-09-02T01:36:23.882Z,99395.66
2022-09-02T01:38:54.177Z,99393.22
2022-09-02T01:41:23.077Z,99392.41
2022-09-02T01:43:51.722Z,99392.41
2022-09-02T01:46:20.502Z,99391.63
2022-09-02T01:48:49.285Z,99399.38
2022-09-02T01:51:21.773Z,99389.97
2022-09-02T01:53:50.753Z,99388.34
2022-09-02T01:56:20.890Z,99389.03
2022-09-02T01:58:50.491Z,99380.41
2022-09-02T02:01:21.776Z,99382.22
2022-09-02T02:03:51.215Z,99382.38
2022-09-02T02:06:23.516Z,99380.59
2022-09-02T02:08:53.924Z,99383.16
2022-09-02T02:11:26.629Z,99384.97
2022-09-02T02:13:59.685Z,99387.69
2022-09-02T02:16:28.538Z,99377.47
2022-09-02T02:18:57.424Z,99380.06
2022-09-02T02:21:26.746Z,99378.31
2022-09-02T02:23:55.628Z,99386.06
2022-09-02T02:26:25.726Z,99379.25
2022-09-02T02:28:54.810Z,99385.25
2022-09-02T02:31:24.633Z,99387.03
2022-09-02T02:33:53.674Z,99387.03
2022-09-02T02:36:22.769Z,99380.06
2022-09-02T02:38:52.035Z,99386.22
2022-09-02T02:41:21.045Z,99385.41
2022-09-02T02:43:51.275Z,99387.03
2022-09-02T02:46:20.154Z,99375.88
2022-09-02T02:48:49.985Z,99381.03
2022-09-02T02:51:18.660Z,99379.41
2022-09-02T02:53:48.006Z,99381.34
2022-09-02T02:56:17.038Z,99378.75
2022-09-02T02:58:45.963Z,99382.16
2022-09-02T03:01:16.767Z,99378.75
2022-09-02T03:03:46.137Z,99375.34
2022-09-02T03:06:15.049Z,99374.56
2022-09-02T03:08:44.154Z,99371.28
2022-09-02T03:11:15.442Z,99377.25
2022-09-02T03:13:44.458Z,99366.91
2022-09-02T03:16:13.568Z,99367.22
2022-09-02T03:18:44.680Z,99368.06
2022-09-02T03:21:14.036Z,99368.19
2022-09-02T03:23:42.953Z,99369.97
2022-09-02T03:26:13.762Z,99370.78
2022-09-02T03:28:42.725Z,99367.53
2022-09-02T03:31:17.677Z,99372.72
2022-09-02T03:33:48.408Z,99370.13
2022-09-02T03:36:27.293Z,99366.72
2022-09-02T03:38:58.733Z,99371.06
2022-09-02T03:41:30.483Z,99378.03
2022-09-02T03:44:01.745Z,99371.25
2022-09-02T03:46:31.708Z,99354.91
2022-09-02T03:49:02.346Z,99361.84
2022-09-02T03:51:31.662Z,99359.41
2022-09-02T03:54:02.700Z,99371.53
2022-09-02T03:56:31.758Z,99362.16
2022-09-02T03:59:01.483Z,99357.78
2022-09-02T04:01:34.592Z,99363.94
2022-09-02T04:04:07.853Z,99361.34
2022-09-02T04:06:38.699Z,99362.31
2022-09-02T04:09:08.442Z,99367.47
2022-09-02T04:11:42.772Z,99364.09
2022-09-02T04:14:13.158Z,99354.53
2022-09-02T04:16:42.491Z,99363.94
2022-09-02T04:19:13.680Z,99359.72
2022-09-02T04:21:44.130Z,99359.72
2022-09-02T04:24:14.344Z,99358.09
2022-09-02T04:26:47.618Z,99357.13
2022-09-02T04:29:19.966Z,99357.13
2022-09-02T04:31:51.537Z,99363.25
2022-09-02T04:34:23.282Z,99361.63
2022-09-02T04:36:54.218Z,99360.66
2022-09-02T04:39:23.122Z,99353.72
2022-09-02T04:41:55.133Z,99358.91
2022-09-02T04:44:26.774Z,99358.09
2022-09-02T04:46:59.163Z,99360.66
2022-09-02T04:49:33.269Z,99361.63
2022-09-02T04:52:05.298Z,99363.41
2022-09-02T04:54:35.744Z,99369.41
2022-09-02T04:57:05.863Z,99371.97
2022-09-02T04:59:37.907Z,99370.22
2022-09-02T05:02:12.184Z,99371.97
2022-09-02T05:04:46.249Z,99371.34
2022-09-02T05:07:23.595Z,99361.94
2022-09-02T05:09:59.113Z,99364.38
2022-09-02T05:12:32.739Z,99373.09
2022-09-02T05:15:05.703Z,99363.72
2022-09-02T05:17:37.645Z,99360.31
2022-09-02T05:20:11.643Z,99372.28
2022-09-02T05:22:41.422Z,99359.50
2022-09-02T05:25:13.590Z,99366.31
2022-09-02T05:27:44.567Z,99372.28
2022-09-02T05:30:16.015Z,99366.31
2022-09-02T05:32:46.584Z,99370.50
2022-09-02T05:35:20.357Z,99368.06
2022-09-02T05:37:49.377Z,99377.47
2022-09-02T05:40:22.706Z,99374.88
2022-09-02T05:42:55.298Z,99380.84
2022-09-02T05:45:27.573Z,99373.94
2022-09-02T05:47:58.835Z,99377.31
2022-09-02T05:50:31.909Z,99375.25
2022-09-02T05:53:03.941Z,99375.25
2022-09-02T05:55:34.758Z,99369.13
2022-09-02T05:58:04.675Z,99369.75
2022-09-02T06:00:36.951Z,99371.38
2022-09-02T06:03:06.483Z,99379.81
2022-09-02T06:05:41.158Z,99378.03
2022-09-02T06:08:20.285Z,99377.88
2022-09-02T06:10:49.795Z,99377.56
2022-09-02T06:13:24.978Z,99370.66
2022-09-02T06:15:59.528Z,99375.66
2022-09-02T06:18:34.868Z,99374.69
2022-09-02T06:21:08.956Z,99382.16
2022-09-02T06:23:46.097Z,99372.44
2022-09-02T06:26:20.035Z,99371.50
2022-09-02T06:28:49.145Z,99369.56
2022-09-02T06:31:24.247Z,99368.44
2022-09-02T06:33:58.626Z,99367.31
2022-09-02T06:36:31.883Z,99364.56
2022-09-02T06:39:05.172Z,99364.44
2022-09-02T06:41:36.121Z,99368.50
2022-09-02T06:44:11.402Z,99374.50
2022-09-02T06:46:48.726Z,99375.13
2022-09-02T06:49:27.359Z,99369.94
2022-09-02T06:52:00.809Z,99363.66
2022-09-02T06:54:34.378Z,99359.31
2022-09-02T06:57:18.938Z,99371.16
2022-09-02T06:59:49.361Z,99365.13
2022-09-02T07:02:21.078Z,99362.38
2022-09-02T07:05:07.851Z,99363.84
2022-09-02T07:07:44.388Z,99357.88
2022-09-02T07:10:16.796Z,99348.47
2022-09-02T07:12:53.904Z,99349.28
2022-09-02T07:15:26.231Z,99353.50
2022-09-02T07:17:58.318Z,99351.56
2022-09-02T07:20:35.396Z,99349.63
2022-09-02T07:23:07.115Z,99356.13
2022-09-02T07:25:41.228Z,99354.19
2022-09-02T07:28:14.835Z,99354.84
2022-09-02T07:30:46.452Z,99352.91
2022-09-02T07:33:19.541Z,99352.63
2022-09-02T07:35:53.214Z,99345.38
2022-09-02T07:38:26.915Z,99348.44
2022-09-02T07:40:57.772Z,99339.56
2022-09-02T07:43:32.128Z,99335.19
2022-09-02T07:46:03.852Z,99336.66
2022-09-02T07:48:37.390Z,99335.69
2022-09-02T07:51:09.887Z,99338.44
2022-09-02T07:53:41.645Z,99336.78
2022-09-02T07:56:11.298Z,99327.25
2022-09-02T07:58:40.789Z,99326.44
2022-09-02T08:01:09.965Z,99324.84
2022-09-02T08:03:44.403Z,99330.19
2022-09-02T08:06:27.724Z,99326.44
2022-09-02T08:09:11.182Z,99330.00
2022-09-02T08:11:41.018Z,99322.25
2022-09-02T08:14:13.249Z,99327.41
2022-09-02T08:16:48.956Z,99330.81
2022-09-02T08:19:19.026Z,99321.91
2022-09-02T08:21:49.717Z,99328.56
2022-09-02T08:24:21.815Z,99331.81
2022-09-02T08:26:50.707Z,99334.25
2022-09-02T08:29:19.913Z,99331.50
2022-09-02T08:31:52.132Z,99339.94
2022-09-02T08:34:23.597Z,99338.81
2022-09-02T08:36:56.869Z,99336.88
2022-09-02T08:39:29.545Z,99337.53
2022-09-02T08:42:09.311Z,99334.59
2022-09-02T08:44:41.222Z,99322.31
2022-09-02T08:47:18.883Z,99326.38
2022-09-02T08:49:52.676Z,99331.38
2022-09-02T08:52:30.241Z,99328.78
2022-09-02T08:57:45.934Z,99321.66
2022-09-02T09:00:16.040Z,99318.09
2022-09-02T09:02:59.825Z,99320.53
2022-09-02T09:05:41.277Z,99319.56
2022-09-02T09:08:21.641Z,99316.97
2022-09-02T09:11:01.582Z,99319.41
2022-09-02T09:13:58.700Z,99320.06
2022-09-02T09:16:41.006Z,99313.88
2022-09-02T09:19:16.308Z,99310.03
2022-09-02T09:21:46.601Z,99302.91
2022-09-02T09:24:28.259Z,99310.03
2022-09-02T09:26:58.008Z,99300.31
2022-09-02T09:29:33.728Z,99313.63
2022-09-02T09:32:04.222Z,99315.88
2022-09-02T09:35:07.891Z,99295.00
2022-09-02T09:37:41.353Z,99299.03
2022-09-02T09:40:30.640Z,99303.09
2022-09-02T09:43:24.479Z,99288.34
2022-09-02T09:45:55.842Z,99306.38
2022-09-02T09:48:31.576Z,99291.59
2022-09-02T09:51:18.969Z,99291.94
2022-09-02T09:53:48.386Z,99289.00
2022-09-02T09:56:37.334Z,99286.91
2022-09-02T09:59:33.999Z,99278.63
2022-09-02T10:02:06.509Z,99285.09
2022-09-02T10:04:43.353Z,99292.22
2022-09-02T10:07:16.076Z,99284.22
2022-09-02T10:09:47.575Z,99283.88
2022-09-02T10:12:34.725Z,99288.00
2022-09-02T10:15:06.046Z,99270.88
2022-09-02T10:17:52.681Z,99270.94
2022-09-02T10:20:37.111Z,99269.81
2022-09-02T10:23:37.712Z,99260.50
2022-09-02T10:29:34.526Z,99267.66
2022-09-02T10:32:37.108Z,99258.13
2022-09-02T10:35:22.933Z,99259.28
2022-09-02T10:38:31.129Z,99256.75
2022-09-02T10:41:23.402Z,99253.00
2022-09-02T10:44:26.539Z,99260.81
2022-09-02T10:47:02.364Z,99261.97
2022-09-02T10:50:02.346Z,99257.66
2022-09-02T10:53:09.751Z,99243.91
2022-09-02T10:55:54.757Z,99252.31
2022-09-02T10:58:42.084Z,99238.13
2022-09-02T11:01:18.243Z,99239.19
2022-09-02T11:04:03.264Z,99241.88
2022-09-02T11:07:01.457Z,99233.34
2022-09-02T11:09:38.936Z,99226.78
2022-09-02T11:12:15.920Z,99229.44
2022-09-02T11:15:00.319Z,99213.22
2022-09-02T11:17:37.549Z,99212.31
2022-09-02T11:20:16.269Z,99220.81
2022-09-02T11:22:56.725Z,99204.28
2022-09-02T11:25:40.056Z,99200.44
2022-09-02T11:28:25.578Z,99196.75
2022-09-02T11:31:06.802Z,99196.25
2022-09-02T11:33:52.700Z,99189.00
2022-09-02T11:36:23.860Z,99188.06
2022-09-02T11:39:00.408Z,99187.63
2022-09-02T11:41:53.611Z,99195.91
2022-09-02T11:45:12.959Z,99182.97
2022-09-02T11:48:23.387Z,99181.50
2022-09-02T11:51:33.844Z,99173.25
2022-09-02T11:54:06.216Z,99179.41
2022-09-02T11:56:42.251Z,99183.00
2022-09-02T11:59:23.790Z,99184.81
2022-09-02T12:01:55.774Z,99190.19
2022-09-02T12:07:26.523Z,99172.47
2022-09-02T12:10:00.422Z,99157.88
2022-09-02T12:13:08.142Z,99172.03
2022-09-02T12:15:40.689Z,99163.41
2022-09-02T12:18:36.887Z,99172.22
2022-09-02T12:21:18.593Z,99161.81
2022-09-02T12:24:21.766Z,99155.34
2022-09-02T12:27:23.511Z,99160.53
2022-09-02T12:29:58.819Z,99154.53
2022-09-02T12:33:09.769Z,99160.53
2022-09-02T12:35:55.348Z,99158.56
2022-09-02T12:38:34.216Z,99149.78
2022-09-02T12:41:31.072Z,99135.84
2022-09-02T12:44:28.475Z,99135.84
2022-09-02T12:47:09.537Z,99133.84
2022-09-02T12:49:54.237Z,99131.91
2022-09-02T12:52:45.531Z,99127.31
2022-09-02T12:55:24.732Z,99122.13
2022-09-02T12:58:06.113Z,99124.38
2022-09-02T13:00:54.457Z,99120.19
2022-09-02T13:04:04.572Z,99114.97
2022-09-02T13:06:56.814Z,99106.34
2022-09-02T13:10:24.054Z,99109.13
2022-09-02T13:13:47.738Z,99105.75
2022-09-02T13:16:34.757Z,99107.38
2022-09-02T13:20:28.294Z,99096.16
2022-09-02T13:23:31.739Z,99089.97
2022-09-02T13:26:49.628Z,99092.38
2022-09-02T13:30:06.471Z,99088.16
2022-09-02T13:32:40.480Z,99078.41
2022-09-02T13:35:23.826Z,99072.06
2022-09-02T13:38:00.833Z,99074.66
2022-09-02T13:40:33.906Z,99061.50
2022-09-02T13:43:05.642Z,99070.09
2022-09-02T13:45:36.953Z,99073.34
2022-09-02T13:48:11.510Z,99063.72
2022-09-02T13:50:47.701Z,99070.41
2022-09-02T13:54:05.657Z,99060.81
2022-09-02T13:56:27.309Z,99052.84
2022-09-02T13:58:58.855Z,99043.25
2022-09-02T14:01:31.549Z,99051.53
2022-09-02T14:04:10.514Z,99046.31
2022-09-02T14:06:46.386Z,99048.94
2022-09-02T14:09:24.098Z,99041.13
2022-09-02T14:11:56.287Z,99046.31
2022-09-02T14:14:29.729Z,99044.53
2022-09-02T14:17:21.448Z,99031.53
2022-09-02T14:19:51.081Z,99032.31
2022-09-02T14:22:31.098Z,99032.31
2022-09-02T14:25:01.674Z,99013.34
2022-09-02T14:27:30.445Z,99008.94
2022-09-02T14:29:59.731Z,99006.31
2022-09-02T14:32:30.353Z,99004.72
2022-09-02T14:37:57.772Z,98991.47
2022-09-02T14:40:38.683Z,98995.97
2022-09-02T14:43:15.040Z,98985.59
2022-09-02T14:45:49.046Z,98988.19
2022-09-02T14:48:23.658Z,98984.63
2022-09-02T14:51:02.721Z,98987.38
2022-09-02T14:53:34.061Z,98978.75
2022-09-02T14:56:02.766Z,98983.16
2022-09-02T14:58:31.602Z,98983.16
2022-09-02T15:01:02.365Z,98969.38
2022-09-02T15:03:32.624Z,98977.16
2022-09-02T15:06:01.244Z,98971.97
2022-09-02T15:08:29.913Z,98967.75
2022-09-02T15:11:02.017Z,98961.56
2022-09-02T15:13:34.903Z,98966.78
2022-09-02T15:16:04.700Z,98968.53
2022-09-02T15:18:33.431Z,98972.94
2022-09-02T15:21:03.236Z,98967.75
2022-09-02T15:23:34.786Z,98958.34
2022-09-02T15:26:06.614Z,98960.94
2022-09-02T15:28:35.948Z,98961.75
2022-09-02T15:31:04.831Z,98964.50
2022-09-02T15:33:33.515Z,98959.31
2022-09-02T15:36:10.303Z,98952.34
2022-09-02T15:38:41.114Z,98953.31
2022-09-02T15:41:19.700Z,98963.72
2022-09-02T15:43:49.432Z,98964.50
2022-09-02T15:46:22.662Z,98956.09
2022-09-02T15:48:51.912Z,98964.69
2022-09-02T15:51:23.265Z,98957.72
2022-09-02T15:53:56.624Z,98961.28
2022-09-02T15:56:28.821Z,98956.88
2022-09-02T15:58:59.091Z,98959.50
2022-09-02T16:01:30.207Z,98954.28
2022-09-02T16:03:59.914Z,98945.69
2022-09-02T16:06:28.704Z,98948.31
2022-09-02T16:08:57.617Z,98962.91
2022-09-02T16:11:28.093Z,98957.06
2022-09-02T16:13:57.067Z,98958.03
2022-09-02T16:16:26.080Z,98954.66
2022-09-02T16:18:56.027Z,98950.44
2022-09-02T16:21:25.294Z,98955.63
2022-09-02T16:23:53.985Z,98956.47
2022-09-02T16:26:29.357Z,98958.22
2022-09-02T16:29:00.693Z,98958.41
2022-09-02T16:31:31.950Z,98960.41
2022-09-02T16:34:03.139Z,98953.41
2022-09-02T16:36:34.857Z,98957.78
2022-09-02T16:39:03.998Z,98953.56
2022-09-02T16:41:36.445Z,98955.34
2022-09-02T16:44:07.914Z,98956.53
2022-09-02T16:46:40.584Z,98954.09
2022-09-02T16:49:09.761Z,98950.09
2022-09-02T16:51:40.823Z,98960.63
2022-09-02T16:54:17.556Z,98958.03
2022-09-02T16:56:51.710Z,98955.59
2022-09-02T16:59:20.361Z,98958.22
2022-09-02T17:01:49.123Z,98954.81
2022-09-02T17:04:18.154Z,98942.63
2022-09-02T17:06:46.791Z,98950.41
2022-09-02T17:09:16.409Z,98954.00
2022-09-02T17:11:45.661Z,98959.53
2022-09-02T17:14:18.017Z,98961.34
2022-09-02T17:16:48.942Z,98952.09
2022-09-02T17:19:22.538Z,98958.28
2022-09-02T17:21:53.712Z,98956.84
2022-09-02T17:24:25.043Z,98956.03
2022-09-02T17:26:56.309Z,98947.44
2022-09-02T17:29:48.897Z,98955.41
2022-09-02T17:32:18.723Z,98960.94
2022-09-02T17:34:49.466Z,98947.16
2022-09-02T17:37:37.636Z,98955.13
2022-09-02T17:40:42.392Z,98950.28
2022-09-02T17:43:29.618Z,98949.00
2022-09-02T17:46:18.301Z,98945.78
2022-09-02T17:49:16.729Z,98951.97
2022-09-02T17:52:07.762Z,98954.91
2022-09-02T17:54:57.844Z,98945.50
2022-09-02T17:58:08.771Z,98947.63
2022-09-02T18:01:09.879Z,98942.63
2022-09-02T18:04:21.434Z,98936.16
2022-09-02T18:07:20.316Z,98945.06
2022-09-02T18:10:08.387Z,98953.03
2022-09-02T18:12:58.012Z,98947.22
2022-09-02T18:15:55.373Z,98943.81
2022-09-02T18:18:53.171Z,98947.53
2022-09-02T18:21:55.138Z,98947.91
2022-09-02T18:25:03.058Z,98950.03
2022-09-02T18:28:01.816Z,98946.00
2022-09-02T18:31:02.800Z,98947.97
2022-09-02T18:34:11.761Z,98947.34
2022-09-02T18:37:13.517Z,98940.72
2022-09-02T18:40:25.293Z,98942.81
2022-09-02T18:43:21.453Z,98941.19
2022-09-02T18:46:09.418Z,98940.59
2022-09-02T18:49:00.797Z,98945.78
2022-09-02T18:51:50.359Z,98952.09
2022-09-02T18:54:48.049Z,98946.91
2022-09-02T18:57:43.123Z,98951.28
2022-09-02T19:00:45.995Z,98953.25
2022-09-02T19:03:36.616Z,98955.19
2022-09-02T19:06:28.866Z,98952.78
2022-09-02T19:09:17.247Z,98957.19
2022-09-02T19:12:06.607Z,98954.75
2022-09-02T19:14:54.151Z,98964.31
2022-09-02T19:17:41.464Z,98958.50
2022-09-02T19:20:29.052Z,98967.25
2022-09-02T19:23:17.595Z,98970.81
2022-09-02T19:26:05.262Z,98971.81
2022-09-02T19:28:55.563Z,98971.97
2022-09-02T19:31:46.377Z,98973.75
2022-09-02T19:34:37.767Z,98965.34
2022-09-02T19:37:25.878Z,98974.09
2022-09-02T19:40:14.869Z,98968.28
2022-09-02T19:43:03.432Z,98985.63
2022-09-02T19:45:52.337Z,98975.44
2022-09-02T19:48:39.811Z,98967.97
2022-09-02T19:51:27.385Z,98976.75
2022-09-02T19:54:17.655Z,98972.69
2022-09-02T19:57:05.102Z,98970.28
2022-09-02T19:59:52.998Z,98971.25
2022-09-02T20:02:41.977Z,98982.59
2022-09-02T20:05:29.948Z,98974.19
2022-09-02T20:08:18.129Z,98978.56
2022-09-02T20:11:07.536Z,98982.25
2022-09-02T20:13:56.413Z,98988.44
2022-09-02T20:16:44.262Z,98984.22
2022-09-02T20:19:34.884Z,98991.22
2022-09-02T20:22:22.117Z,98981.97
2022-09-02T20:25:10.054Z,98975.97
2022-09-02T20:28:10.491Z,98979.69
2022-09-02T20:31:09.419Z,98985.88
2022-09-02T20:34:07.219Z,98983.44
2022-09-02T20:37:10.008Z,98979.41
2022-09-02T20:40:21.923Z,98977.13
2022-09-02T20:43:42.312Z,98963.56
2022-09-02T20:46:48.176Z,98968.91
2022-09-02T20:49:58.391Z,98971.63
2022-09-02T20:53:04.993Z,98966.78
2022-09-02T20:55:59.189Z,98971.19
2022-09-02T20:58:54.110Z,98979.13
2022-09-02T21:01:45.345Z,98973.13
2022-09-02T21:04:40.140Z,98970.69
2022-09-02T21:07:34.251Z,98970.69
2022-09-02T21:10:29.757Z,98963.91
2022-09-02T21:13:26.561Z,98962.31
2022-09-02T21:16:19.673Z,98965.84
2022-09-02T21:19:15.446Z,98968.44
2022-09-02T21:22:10.468Z,98960.03
2022-09-02T21:25:00.474Z,98966.19
2022-09-02T21:27:55.122Z,98960.19
2022-09-02T21:30:48.057Z,98955.00
2022-09-02T21:33:37.313Z,98963.13
2022-09-02T21:36:29.660Z,98950.16
2022-09-02T21:39:19.987Z,98958.75
2022-09-02T21:42:21.134Z,98956.50
2022-09-02T21:45:22.171Z,98966.06
2022-09-02T21:48:25.187Z,98967.81
2022-09-02T21:51:22.575Z,98958.44
2022-09-02T21:54:35.291Z,98962.00
2022-09-02T21:57:47.122Z,98962.19
2022-09-02T22:00:36.682Z,98961.34
2022-09-02T22:03:40.076Z,98954.56
2022-09-02T22:06:35.010Z,98958.94
2022-09-02T22:09:29.531Z,98964.28
2022-09-02T22:12:17.787Z,98960.06
2022-09-02T22:15:14.544Z,98960.06
2022-09-02T22:18:16.519Z,98962.66
2022-09-02T22:21:15.147Z,98959.28
2022-09-02T22:24:02.285Z,98944.69
2022-09-02T22:26:53.860Z,98952.63
2022-09-02T22:29:47.930Z,98939.69
2022-09-02T22:32:40.920Z,98943.06
2022-09-02T22:35:37.104Z,98948.25
2022-09-02T22:38:33.345Z,98940.47
2022-09-02T22:41:27.209Z,98937.75
2022-09-02T22:44:19.316Z,98943.06
2022-09-02T22:47:28.035Z,98932.69
2022-09-02T22:50:40.051Z,98937.09
2022-09-02T22:53:31.444Z,98932.88
2022-09-02T22:56:30.708Z,98937.09
2022-09-02T22:59:43.378Z,98941.47
2022-09-02T23:02:37.460Z,98931.09
2022-09-02T23:05:45.322Z,98943.06
2022-09-02T23:08:37.126Z,98930.28
2022-09-02T23:11:31.651Z,98937.88
2022-09-02T23:14:29.782Z,98928.34
2022-09-02T23:17:34.616Z,98936.75
2022-09-02T23:20:29.730Z,98945.53
2022-09-02T23:23:38.738Z,98951.84
2022-09-02T23:26:35.475Z,98941.63
2022-09-02T23:29:26.057Z,98946.78
2022-09-02T23:32:47.926Z,98942.63
2022-09-02T23:35:48.306Z,98937.44
2022-09-02T23:39:01.197Z,98927.06
2022-09-02T23:41:48.709Z,98927.06
2022-09-02T23:44:36.375Z,98921.88
2022-09-02T23:47:42.079Z,98937.44
2022-09-02T23:50:45.886Z,98931.41
2022-09-02T23:53:42.118Z,98928.03
2022-09-02T23:56:47.085Z,98925.44
